M/T Havva Ana — V7RE3 — position and weather

sailwx.info

Track history (hours):
 
Tides and Currents Weather Stations Pressure Air Temp Water Temp Dewpoint Dewpoint Depression Visibility Wind Speed Wind Dir Waves Ship Positions

M/T Havva Ana

Last reported at 2015-Jan-31 21:15 UTC. Time now 2015-Jan-31 22:42 UTC.
Position N 46°17' E 030°46'.

Length 124 m; draft 7 m.

Type: Tanker. MMSI: 538003488.

Date/timePositionNaut miles runAvg speedWind from/ knotsBaromVisibWave heightAir tempDewpointWater temp
2015-Jan-31 21:15N 46°17' E 030°46'4 6.3
2015-Jan-31 20:33N 46°19' E 030°41'  
2015-Jan-27 19:16N 44°18' E 034°04'1014.2
2015-Jan-27 18:33N 44°18' E 034°18'1414.2
2015-Jan-27 17:33N 44°17' E 034°38'5913.3
2015-Jan-27 13:09N 44°37' E 035°55'  
2015-Jan-23 07:32N 44°41' E 036°17'1212.0
2015-Jan-23 06:33N 44°35' E 036°03'1212.0
2015-Jan-23 05:33N 44°28' E 035°49'1212.2
2015-Jan-23 04:33N 44°22' E 035°35'1212.1
2015-Jan-23 03:33N 44°15' E 035°21'1212.0
2015-Jan-23 02:33N 44°08' E 035°07'1212.0
2015-Jan-23 01:33N 44°01' E 034°53'1211.9
2015-Jan-23 00:33N 43°55' E 034°39'1212.0
2015-Jan-22 23:33N 43°48' E 034°25'1312.4
2015-Jan-22 22:30N 43°41' E 034°10'  
Track history (hours):
 
Tides and Currents Weather Stations Pressure Air Temp Water Temp Dewpoint Dewpoint Depression Visibility Wind Speed Wind Dir Waves Ship Positions

M/T Havva Ana

Last reported at 2015-Jan-31 21:15 UTC. Time now 2015-Jan-31 22:42 UTC.
Position N 46°17' E 030°46'.

Length 124 m; draft 7 m.

Type: Tanker. MMSI: 538003488.

Date/timePositionNaut miles runAvg speedWind from/ knotsBaromVisibWave heightAir tempDewpointWater temp
2015-Jan-31 21:15N 46°17' E 030°46'4 6.3
2015-Jan-31 20:33N 46°19' E 030°41'  
2015-Jan-27 19:16N 44°18' E 034°04'1014.2
2015-Jan-27 18:33N 44°18' E 034°18'1414.2
2015-Jan-27 17:33N 44°17' E 034°38'5913.3
2015-Jan-27 13:09N 44°37' E 035°55'  
2015-Jan-23 07:32N 44°41' E 036°17'1212.0
2015-Jan-23 06:33N 44°35' E 036°03'1212.0
2015-Jan-23 05:33N 44°28' E 035°49'1212.2
2015-Jan-23 04:33N 44°22' E 035°35'1212.1
2015-Jan-23 03:33N 44°15' E 035°21'1212.0
2015-Jan-23 02:33N 44°08' E 035°07'1212.0
2015-Jan-23 01:33N 44°01' E 034°53'1211.9
2015-Jan-23 00:33N 43°55' E 034°39'1212.0
2015-Jan-22 23:33N 43°48' E 034°25'1312.4
2015-Jan-22 22:30N 43°41' E 034°10'  

Dump ship's entire track history